createdAt,value
2023-02-02T00:01:36.994Z,101392.53
2023-02-02T00:04:05.371Z,101398.91
2023-02-02T00:06:34.417Z,101402.94
2023-02-02T00:09:03.663Z,101402.09
2023-02-02T00:11:31.891Z,101392.53
2023-02-02T00:14:00.998Z,101396.72
2023-02-02T00:16:42.208Z,101394.53
2023-02-02T00:19:14.555Z,101392.81
2023-02-02T00:21:43.394Z,101388.63
2023-02-02T00:24:13.652Z,101397.34
2023-02-02T00:26:43.544Z,101391.25
2023-02-02T00:29:19.078Z,101389.03
2023-02-02T00:31:48.771Z,101394.84
2023-02-02T00:34:17.947Z,101390.50
2023-02-02T00:36:46.626Z,101389.16
2023-02-02T00:39:18.626Z,101378.72
2023-02-02T00:41:46.969Z,101399.84
2023-02-02T00:44:32.760Z,101401.63
2023-02-02T00:47:02.392Z,101400.06
2023-02-02T00:49:30.551Z,101392.75
2023-02-02T00:51:59.178Z,101391.44
2023-02-02T00:54:27.311Z,101392.34
2023-02-02T00:56:55.240Z,101393.53
2023-02-02T00:59:23.215Z,101395.03
2023-02-02T01:01:51.417Z,101403.03
2023-02-02T01:04:20.781Z,101405.84
2023-02-02T01:06:48.738Z,101409.81
2023-02-02T01:09:16.692Z,101404.59
2023-02-02T01:11:44.609Z,101401.00
2023-02-02T01:14:12.583Z,101403.03
2023-02-02T01:16:40.771Z,101410.50
2023-02-02T01:19:09.249Z,101408.00
2023-02-02T01:21:38.716Z,101405.22
2023-02-02T01:24:07.512Z,101399.94
2023-02-02T01:26:35.731Z,101404.41
2023-02-02T01:29:03.674Z,101405.53
2023-02-02T01:31:31.948Z,101411.75
2023-02-02T01:34:00.031Z,101409.09
2023-02-02T01:36:28.222Z,101410.16
2023-02-02T01:38:57.761Z,101415.84
2023-02-02T01:41:27.346Z,101422.72
2023-02-02T01:43:59.245Z,101417.56
2023-02-02T01:46:29.576Z,101429.75
2023-02-02T01:49:03.691Z,101420.97
2023-02-02T01:51:37.663Z,101424.06
2023-02-02T01:54:12.664Z,101421.66
2023-02-02T01:56:46.955Z,101423.38
2023-02-02T01:59:17.598Z,101418.72
2023-02-02T02:01:47.969Z,101410.81
2023-02-02T02:04:16.684Z,101407.56
2023-02-02T02:06:45.466Z,101407.78
2023-02-02T02:09:15.223Z,101412.41
2023-02-02T02:11:43.141Z,101410.16
2023-02-02T02:14:30.422Z,101408.50
2023-02-02T02:17:19.608Z,101407.44
2023-02-02T02:20:42.726Z,101405.47
2023-02-02T02:24:34.545Z,101398.28
2023-02-02T02:27:28.785Z,101401.22
2023-02-02T02:30:38.580Z,101396.31
2023-02-02T02:33:12.379Z,101397.50
2023-02-02T02:35:48.836Z,101389.97
2023-02-02T02:38:27.289Z,101382.00
2023-02-02T02:41:01.256Z,101386.25
2023-02-02T02:43:34.100Z,101375.88
2023-02-02T02:46:02.877Z,101384.69
2023-02-02T02:48:32.337Z,101383.44
2023-02-02T02:51:08.117Z,101374.31
2023-02-02T02:53:38.018Z,101377.88
2023-02-02T02:56:16.384Z,101371.25
2023-02-02T02:58:51.316Z,101374.25
2023-02-02T03:01:28.161Z,101362.28
2023-02-02T03:04:09.527Z,101367.75
2023-02-02T03:06:45.583Z,101366.56
2023-02-02T03:09:16.920Z,101362.88
2023-02-02T03:11:45.261Z,101357.47
2023-02-02T03:14:13.339Z,101356.47
2023-02-02T03:16:41.562Z,101351.75
2023-02-02T03:19:11.047Z,101350.19
2023-02-02T03:21:38.992Z,101347.56
2023-02-02T03:24:07.661Z,101354.47
2023-02-02T03:26:36.368Z,101348.88
2023-02-02T03:29:04.631Z,101350.06
2023-02-02T03:31:32.702Z,101348.50
2023-02-02T03:34:00.781Z,101341.63
2023-02-02T03:36:30.242Z,101341.78
2023-02-02T03:38:58.346Z,101332.44
2023-02-02T03:41:26.446Z,101326.09
2023-02-02T03:43:54.355Z,101336.31
2023-02-02T03:46:22.422Z,101337.38
2023-02-02T03:48:50.365Z,101334.03
2023-02-02T03:51:18.355Z,101329.84
2023-02-02T03:53:48.300Z,101325.56
2023-02-02T03:56:16.950Z,101309.78
2023-02-02T03:58:46.453Z,101327.78
2023-02-02T04:01:15.737Z,101307.09
2023-02-02T04:03:46.406Z,101310.78
2023-02-02T04:06:14.418Z,101312.66
2023-02-02T04:08:42.430Z,101315.69
2023-02-02T04:11:12.662Z,101309.34
2023-02-02T04:13:43.391Z,101312.78
2023-02-02T04:16:12.946Z,101315.47
2023-02-02T04:18:41.476Z,101304.06
2023-02-02T04:21:09.733Z,101309.66
2023-02-02T04:23:38.042Z,101308.72
2023-02-02T04:26:06.562Z,101309.59
2023-02-02T04:28:36.109Z,101322.84
2023-02-02T04:31:04.176Z,101317.50
2023-02-02T04:33:32.239Z,101319.22
2023-02-02T04:36:00.262Z,101326.06
2023-02-02T04:38:28.413Z,101321.78
2023-02-02T04:40:56.637Z,101308.66
2023-02-02T04:43:24.582Z,101321.13
2023-02-02T04:45:58.244Z,101318.78
2023-02-02T04:48:26.498Z,101319.69
2023-02-02T04:51:00.328Z,101322.19
2023-02-02T04:53:29.124Z,101327.81
2023-02-02T04:55:57.194Z,101331.91
2023-02-02T04:58:25.537Z,101322.16
2023-02-02T05:00:53.583Z,101328.59
2023-02-02T05:03:22.938Z,101331.69
2023-02-02T05:05:51.070Z,101340.78
2023-02-02T05:08:19.125Z,101341.44
2023-02-02T05:10:47.201Z,101346.44
2023-02-02T05:13:15.207Z,101343.69
2023-02-02T05:15:43.372Z,101352.00
2023-02-02T05:18:11.307Z,101350.81
2023-02-02T05:20:40.568Z,101362.16
2023-02-02T05:23:08.591Z,101361.22
2023-02-02T05:25:36.661Z,101360.44
2023-02-02T05:28:04.627Z,101355.34
2023-02-02T05:30:33.696Z,101365.66
2023-02-02T05:33:01.852Z,101370.44
2023-02-02T05:35:29.894Z,101373.22
2023-02-02T05:37:59.422Z,101365.69
2023-02-02T05:40:27.517Z,101366.34
2023-02-02T05:42:55.460Z,101373.59
2023-02-02T05:45:23.959Z,101372.00
2023-02-02T05:47:55.612Z,101376.25
2023-02-02T05:50:24.132Z,101378.94
2023-02-02T05:52:52.464Z,101388.81
2023-02-02T05:55:21.970Z,101391.06
2023-02-02T05:57:50.285Z,101392.59
2023-02-02T06:00:19.247Z,101383.72
2023-02-02T06:02:47.187Z,101388.38
2023-02-02T06:05:15.281Z,101385.06
2023-02-02T06:07:43.288Z,101382.75
2023-02-02T06:10:11.841Z,101390.72
2023-02-02T06:12:41.136Z,101393.09
2023-02-02T06:15:10.087Z,101400.44
2023-02-02T06:17:38.085Z,101399.94
2023-02-02T06:20:07.129Z,101393.94
2023-02-02T06:22:35.060Z,101399.69
2023-02-02T06:25:04.420Z,101402.97
2023-02-02T06:27:33.402Z,101404.91
2023-02-02T06:30:02.745Z,101400.09
2023-02-02T06:32:31.078Z,101409.16
2023-02-02T06:34:59.142Z,101406.88
2023-02-02T06:37:29.612Z,101411.66
2023-02-02T06:39:58.886Z,101405.94
2023-02-02T06:42:27.056Z,101406.56
2023-02-02T06:44:54.972Z,101398.34
2023-02-02T06:47:26.027Z,101406.88
2023-02-02T06:49:54.905Z,101411.03
2023-02-02T06:52:22.857Z,101404.16
2023-02-02T06:54:51.805Z,101405.53
2023-02-02T06:57:19.742Z,101415.78
2023-02-02T06:59:47.673Z,101416.13
2023-02-02T07:02:15.728Z,101422.03
2023-02-02T07:04:45.182Z,101415.03
2023-02-02T07:07:13.101Z,101418.03
2023-02-02T07:09:41.064Z,101424.03
2023-02-02T07:12:09.153Z,101418.78
2023-02-02T07:14:37.953Z,101421.97
2023-02-02T07:17:06.112Z,101408.75
2023-02-02T07:19:34.300Z,101425.28
2023-02-02T07:22:04.114Z,101421.97
2023-02-02T07:24:32.884Z,101428.84
2023-02-02T07:27:01.082Z,101436.47
2023-02-02T07:29:29.214Z,101440.38
2023-02-02T07:31:57.335Z,101444.38
2023-02-02T07:34:26.013Z,101448.47
2023-02-02T07:36:54.067Z,101441.72
2023-02-02T07:39:23.491Z,101450.63
2023-02-02T07:41:51.431Z,101446.63
2023-02-02T07:44:19.404Z,101446.59
2023-02-02T07:46:48.447Z,101449.28
2023-02-02T07:49:18.740Z,101448.81
2023-02-02T07:51:49.230Z,101450.19
2023-02-02T07:54:17.292Z,101449.97
2023-02-02T07:56:46.712Z,101449.75
2023-02-02T07:59:14.705Z,101456.75
2023-02-02T08:01:42.963Z,101444.69
2023-02-02T08:04:11.244Z,101456.56
2023-02-02T08:06:40.693Z,101455.97
2023-02-02T08:09:10.214Z,101459.41
2023-02-02T08:11:39.301Z,101464.94
2023-02-02T08:14:08.775Z,101465.84
2023-02-02T08:16:36.835Z,101466.00
2023-02-02T08:19:04.835Z,101463.06
2023-02-02T08:21:34.911Z,101460.81
2023-02-02T08:24:04.644Z,101458.47
2023-02-02T08:26:33.143Z,101466.72
2023-02-02T08:29:03.736Z,101466.66
2023-02-02T08:31:35.033Z,101460.06
2023-02-02T08:34:03.381Z,101449.50
2023-02-02T08:36:35.472Z,101461.94
2023-02-02T08:39:05.602Z,101446.03
2023-02-02T08:41:34.205Z,101458.91
2023-02-02T08:44:02.378Z,101469.34
2023-02-02T08:46:30.315Z,101469.06
2023-02-02T08:49:00.150Z,101471.63
2023-02-02T08:51:28.188Z,101477.03
2023-02-02T08:53:56.136Z,101473.56
2023-02-02T08:56:24.722Z,101474.50
2023-02-02T08:58:55.222Z,101479.84
2023-02-02T09:01:25.059Z,101486.22
2023-02-02T09:03:54.955Z,101487.47
2023-02-02T09:06:29.490Z,101484.69
2023-02-02T09:08:57.534Z,101500.41
2023-02-02T09:11:25.816Z,101493.66
2023-02-02T09:13:56.255Z,101499.31
2023-02-02T09:16:25.025Z,101509.13
2023-02-02T09:18:53.075Z,101504.94
2023-02-02T09:21:21.126Z,101504.31
2023-02-02T09:23:53.733Z,101501.25
2023-02-02T09:26:24.289Z,101510.19
2023-02-02T09:28:54.436Z,101510.47
2023-02-02T09:31:23.203Z,101511.63
2023-02-02T09:33:51.284Z,101515.44
2023-02-02T09:36:21.352Z,101516.28
2023-02-02T09:38:51.525Z,101525.81
2023-02-02T09:41:54.295Z,101528.81
2023-02-02T09:44:36.278Z,101531.59
2023-02-02T09:47:17.637Z,101532.97
2023-02-02T09:49:59.018Z,101528.94
2023-02-02T09:52:30.951Z,101535.53
2023-02-02T09:55:04.445Z,101535.56
2023-02-02T09:57:38.932Z,101536.00
2023-02-02T10:00:17.372Z,101544.19
2023-02-02T10:02:47.273Z,101546.03
2023-02-02T10:05:21.002Z,101550.63
2023-02-02T10:07:54.295Z,101541.16
2023-02-02T10:10:27.524Z,101534.44
2023-02-02T10:12:58.863Z,101538.16
2023-02-02T10:15:38.903Z,101542.50
2023-02-02T10:18:16.453Z,101535.97
2023-02-02T10:20:48.659Z,101535.50
2023-02-02T10:23:23.997Z,101544.06
2023-02-02T10:25:58.450Z,101531.63
2023-02-02T10:28:42.306Z,101532.75
2023-02-02T10:31:21.064Z,101528.75
2023-02-02T10:34:02.447Z,101529.59
2023-02-02T10:36:43.655Z,101525.91
2023-02-02T10:39:22.228Z,101522.84
2023-02-02T10:42:01.481Z,101522.88
2023-02-02T10:44:38.660Z,101522.50
2023-02-02T10:47:11.999Z,101524.53
2023-02-02T10:49:41.993Z,101519.38
2023-02-02T10:52:17.417Z,101508.81
2023-02-02T10:54:58.714Z,101511.84
2023-02-02T10:57:52.523Z,101502.75
2023-02-02T11:00:24.190Z,101514.22
2023-02-02T11:02:53.775Z,101510.38
2023-02-02T11:05:42.724Z,101509.31
2023-02-02T11:08:20.196Z,101503.84
2023-02-02T11:10:50.903Z,101498.28
2023-02-02T11:13:29.172Z,101503.59
2023-02-02T11:16:21.355Z,101483.81
2023-02-02T11:18:49.899Z,101483.44
2023-02-02T11:21:23.929Z,101479.34
2023-02-02T11:24:02.438Z,101474.91
2023-02-02T11:26:44.165Z,101467.22
2023-02-02T11:29:17.521Z,101464.44
2023-02-02T11:31:48.495Z,101459.56
2023-02-02T11:34:20.693Z,101452.28
2023-02-02T11:37:14.280Z,101451.88
2023-02-02T11:39:42.687Z,101443.22
2023-02-02T11:42:17.293Z,101453.38
2023-02-02T11:44:50.183Z,101446.53
2023-02-02T11:47:26.017Z,101447.59
2023-02-02T11:49:58.700Z,101447.69
2023-02-02T11:52:32.324Z,101435.22
2023-02-02T11:55:02.470Z,101436.59
2023-02-02T11:57:30.716Z,101431.63
2023-02-02T12:00:19.209Z,101426.78
2023-02-02T12:02:49.043Z,101383.94
2023-02-02T12:05:36.973Z,101415.22
2023-02-02T12:08:05.870Z,101413.69
2023-02-02T12:10:41.266Z,101413.91
2023-02-02T12:13:15.914Z,101412.09
2023-02-02T12:15:52.958Z,101406.53
2023-02-02T12:18:42.049Z,101408.50
2023-02-02T12:21:19.657Z,101405.31
2023-02-02T12:24:04.579Z,101407.59
2023-02-02T12:26:35.603Z,101391.31
2023-02-02T12:29:19.846Z,101395.66
2023-02-02T12:32:01.182Z,101387.25
2023-02-02T12:34:38.709Z,101384.00
2023-02-02T12:37:18.771Z,101391.81
2023-02-02T12:39:58.375Z,101392.25
2023-02-02T12:42:41.128Z,101380.19
2023-02-02T12:45:26.478Z,101382.94
2023-02-02T12:48:11.669Z,101375.50
2023-02-02T12:50:50.154Z,101369.47
2023-02-02T12:53:34.567Z,101364.38
2023-02-02T12:56:10.403Z,101367.97
2023-02-02T12:58:44.391Z,101368.44
2023-02-02T13:01:38.854Z,101353.81
2023-02-02T13:07:32.088Z,101345.63
2023-02-02T13:10:08.497Z,101345.66
2023-02-02T13:12:41.006Z,101349.81
2023-02-02T13:15:13.746Z,101337.94
2023-02-02T13:17:47.901Z,101331.81
2023-02-02T13:20:25.265Z,101337.31
2023-02-02T13:22:56.282Z,101330.94
2023-02-02T13:25:29.298Z,101333.50
2023-02-02T13:28:00.084Z,101340.50
2023-02-02T13:30:32.572Z,101329.28
2023-02-02T13:33:05.202Z,101312.97
2023-02-02T13:35:40.438Z,101317.53
2023-02-02T13:38:17.468Z,101316.44
2023-02-02T13:40:45.808Z,101324.41
2023-02-02T13:43:27.302Z,101314.75
2023-02-02T13:46:11.968Z,101321.53
2023-02-02T13:48:51.749Z,101321.03
2023-02-02T13:51:55.009Z,101312.06
2023-02-02T13:55:04.593Z,101318.72
2023-02-02T13:58:07.010Z,101309.00
2023-02-02T14:00:38.854Z,101319.56
2023-02-02T14:03:23.744Z,101312.41
2023-02-02T14:06:05.727Z,101306.00
2023-02-02T14:08:35.778Z,101299.84
2023-02-02T14:11:06.248Z,101311.41
2023-02-02T14:14:02.278Z,101309.78
2023-02-02T14:16:47.060Z,101313.59
2023-02-02T14:19:40.787Z,101324.00
2023-02-02T14:22:21.406Z,101336.03
2023-02-02T14:24:53.608Z,101330.72
2023-02-02T14:27:57.833Z,101321.41
2023-02-02T14:30:33.628Z,101330.09
2023-02-02T14:33:25.902Z,101327.41
2023-02-02T14:36:02.663Z,101325.47
2023-02-02T14:38:52.851Z,101324.19
2023-02-02T14:41:48.689Z,101326.19
2023-02-02T14:44:17.190Z,101340.50
2023-02-02T14:46:49.142Z,101336.16
2023-02-02T14:49:25.911Z,101328.75
2023-02-02T14:51:58.174Z,101337.22
2023-02-02T14:54:31.725Z,101330.47
2023-02-02T14:57:03.962Z,101335.34
2023-02-02T14:59:36.074Z,101341.75
2023-02-02T15:02:15.442Z,101351.63
2023-02-02T15:04:44.052Z,101347.78
2023-02-02T15:07:52.918Z,101353.03
2023-02-02T15:10:58.066Z,101347.78
2023-02-02T15:13:30.351Z,101350.00
2023-02-02T15:16:07.571Z,101349.69
2023-02-02T15:18:44.487Z,101356.34
2023-02-02T15:21:18.481Z,101357.31
2023-02-02T15:23:48.286Z,101355.34
2023-02-02T15:26:20.800Z,101350.22
2023-02-02T15:28:55.403Z,101353.75
2023-02-02T15:31:30.909Z,101350.38
2023-02-02T15:34:06.142Z,101353.63
2023-02-02T15:36:38.754Z,101356.63
2023-02-02T15:39:14.742Z,101350.72
2023-02-02T15:41:44.907Z,101361.75
2023-02-02T15:44:21.700Z,101355.03
2023-02-02T15:46:50.657Z,101343.56
2023-02-02T15:49:35.050Z,101368.13
2023-02-02T15:52:14.739Z,101374.81
2023-02-02T15:54:52.743Z,101351.00
2023-02-02T15:57:40.549Z,101368.63
2023-02-02T16:03:08.876Z,101368.81
2023-02-02T16:05:44.543Z,101363.63
2023-02-02T16:08:18.985Z,101357.31
2023-02-02T16:10:48.138Z,101361.38
2023-02-02T16:13:34.094Z,101356.94
2023-02-02T16:16:03.924Z,101362.22
2023-02-02T16:18:33.831Z,101364.59
2023-02-02T16:21:08.301Z,101364.44
2023-02-02T16:23:38.241Z,101357.50
2023-02-02T16:26:07.953Z,101369.16
2023-02-02T16:28:36.494Z,101363.81
2023-02-02T16:31:05.596Z,101362.56
2023-02-02T16:33:41.844Z,101373.66
2023-02-02T16:36:25.614Z,101372.31
2023-02-02T16:38:54.812Z,101375.28
2023-02-02T16:41:28.001Z,101377.50
2023-02-02T16:43:56.138Z,101369.34
2023-02-02T16:46:45.683Z,101377.66
2023-02-02T16:49:23.021Z,101389.00
2023-02-02T16:52:10.651Z,101386.16
2023-02-02T16:54:40.072Z,101390.22
2023-02-02T16:57:07.965Z,101394.16
2023-02-02T16:59:37.847Z,101396.94
2023-02-02T17:02:21.034Z,101400.56
2023-02-02T17:04:55.539Z,101406.88
2023-02-02T17:07:24.192Z,101408.88
2023-02-02T17:10:13.469Z,101419.03
2023-02-02T17:12:41.331Z,101418.41
2023-02-02T17:15:29.998Z,101418.19
2023-02-02T17:17:58.855Z,101429.47
2023-02-02T17:20:32.478Z,101428.19
2023-02-02T17:23:03.485Z,101424.09
2023-02-02T17:25:35.673Z,101437.88
2023-02-02T17:28:04.842Z,101445.91
2023-02-02T17:30:32.769Z,101449.38
2023-02-02T17:33:00.642Z,101449.69
2023-02-02T17:35:40.051Z,101455.75
2023-02-02T17:38:17.475Z,101456.16
2023-02-02T17:40:48.701Z,101461.97
2023-02-02T17:43:17.636Z,101459.84
2023-02-02T17:45:45.671Z,101458.06
2023-02-02T17:48:15.123Z,101465.50
2023-02-02T17:50:44.975Z,101468.75
2023-02-02T17:53:15.301Z,101463.72
2023-02-02T17:55:44.591Z,101471.03
2023-02-02T17:58:17.103Z,101467.03
2023-02-02T18:00:46.824Z,101472.44
2023-02-02T18:03:19.207Z,101479.41
2023-02-02T18:05:48.989Z,101484.22
2023-02-02T18:08:17.026Z,101485.25
2023-02-02T18:10:45.185Z,101488.28
2023-02-02T18:13:19.247Z,101495.59
2023-02-02T18:15:47.733Z,101494.91
2023-02-02T18:18:15.898Z,101500.59
2023-02-02T18:20:44.434Z,101509.69
2023-02-02T18:23:14.041Z,101512.16
2023-02-02T18:25:42.431Z,101514.22
2023-02-02T18:28:11.102Z,101509.06
2023-02-02T18:30:39.221Z,101514.84
2023-02-02T18:33:09.177Z,101515.09
2023-02-02T18:35:37.417Z,101507.75
2023-02-02T18:38:05.401Z,101511.91
2023-02-02T18:40:34.876Z,101511.03
2023-02-02T18:43:02.814Z,101512.06
2023-02-02T18:45:31.121Z,101513.25
2023-02-02T18:47:58.989Z,101522.50
2023-02-02T18:50:27.019Z,101516.34
2023-02-02T18:52:56.991Z,101517.63
2023-02-02T18:55:27.610Z,101516.00
2023-02-02T18:57:57.228Z,101520.50
2023-02-02T19:00:28.286Z,101514.97
2023-02-02T19:02:56.137Z,101514.09
2023-02-02T19:05:41.246Z,101521.28
2023-02-02T19:08:09.365Z,101516.50
2023-02-02T19:10:39.069Z,101517.56
2023-02-02T19:13:18.044Z,101518.66
2023-02-02T19:15:47.160Z,101515.75
2023-02-02T19:18:16.642Z,101519.34
2023-02-02T19:20:45.187Z,101524.28
2023-02-02T19:23:15.432Z,101530.06
2023-02-02T19:25:46.570Z,101521.63
2023-02-02T19:28:23.243Z,101525.91
2023-02-02T19:30:52.863Z,101527.84
2023-02-02T19:33:22.052Z,101526.91
2023-02-02T19:35:53.184Z,101523.13
2023-02-02T19:38:21.602Z,101523.34
2023-02-02T19:40:49.515Z,101528.56
2023-02-02T19:43:26.846Z,101525.66
2023-02-02T19:45:55.129Z,101526.41
2023-02-02T19:48:27.282Z,101530.31
2023-02-02T19:50:56.155Z,101531.50
2023-02-02T19:53:28.281Z,101523.53
2023-02-02T19:55:56.266Z,101533.22
2023-02-02T19:58:28.205Z,101527.22
2023-02-02T20:00:58.437Z,101528.69
2023-02-02T20:03:29.074Z,101532.56
2023-02-02T20:05:58.639Z,101536.28
2023-02-02T20:08:32.970Z,101528.44
2023-02-02T20:11:07.338Z,101526.19
2023-02-02T20:13:44.911Z,101525.63
2023-02-02T20:16:19.093Z,101528.84
2023-02-02T20:18:53.204Z,101532.41
2023-02-02T20:21:27.569Z,101534.66
2023-02-02T20:23:55.681Z,101529.38
2023-02-02T20:26:26.851Z,101522.72
2023-02-02T20:28:57.892Z,101527.47
2023-02-02T20:31:35.379Z,101528.97
2023-02-02T20:34:08.939Z,101521.97
2023-02-02T20:36:40.294Z,101525.03
2023-02-02T20:39:26.402Z,101525.88
2023-02-02T20:41:56.485Z,101525.16
2023-02-02T20:44:26.460Z,101528.81
2023-02-02T20:46:55.758Z,101541.03
2023-02-02T20:49:25.650Z,101532.56
2023-02-02T20:51:54.607Z,101536.91
2023-02-02T20:54:22.934Z,101531.03
2023-02-02T20:56:51.655Z,101527.03
2023-02-02T20:59:22.665Z,101543.59
2023-02-02T21:01:53.007Z,101538.31
2023-02-02T21:04:22.618Z,101540.03
2023-02-02T21:06:55.328Z,101542.81
2023-02-02T21:09:23.754Z,101540.03
2023-02-02T21:11:51.910Z,101547.19
2023-02-02T21:14:22.445Z,101547.91
2023-02-02T21:16:57.276Z,101541.47
2023-02-02T21:19:30.439Z,101540.47
2023-02-02T21:21:58.395Z,101539.88
2023-02-02T21:24:26.333Z,101538.47
2023-02-02T21:26:55.017Z,101537.75
2023-02-02T21:29:23.870Z,101546.09
2023-02-02T21:31:58.768Z,101542.13
2023-02-02T21:34:27.197Z,101539.31
2023-02-02T21:36:58.141Z,101542.84
2023-02-02T21:39:30.003Z,101540.19
2023-02-02T21:42:12.789Z,101539.69
2023-02-02T21:44:44.364Z,101548.84
2023-02-02T21:47:27.877Z,101555.13
2023-02-02T21:49:57.747Z,101556.69
2023-02-02T21:52:33.720Z,101558.56
2023-02-02T21:55:29.144Z,101546.13
2023-02-02T21:57:59.172Z,101565.38
2023-02-02T22:00:30.988Z,101560.16
2023-02-02T22:03:00.971Z,101562.75
2023-02-02T22:05:35.574Z,101561.75
2023-02-02T22:08:18.782Z,101568.88
2023-02-02T22:10:47.822Z,101569.97
2023-02-02T22:13:18.840Z,101563.13
2023-02-02T22:15:48.789Z,101562.25
2023-02-02T22:18:20.180Z,101566.63
2023-02-02T22:20:50.687Z,101563.97
2023-02-02T22:23:20.663Z,101558.97
2023-02-02T22:25:49.911Z,101560.34
2023-02-02T22:28:23.006Z,101559.50
2023-02-02T22:30:52.628Z,101566.78
2023-02-02T22:33:23.399Z,101559.78
2023-02-02T22:35:51.411Z,101564.34
2023-02-02T22:38:21.139Z,101560.19
2023-02-02T22:40:50.107Z,101573.66
2023-02-02T22:43:19.119Z,101571.84
2023-02-02T22:45:47.233Z,101576.00
2023-02-02T22:48:16.591Z,101566.25
2023-02-02T22:50:46.015Z,101571.66
2023-02-02T22:53:15.378Z,101570.81
2023-02-02T22:55:44.043Z,101574.50
2023-02-02T22:58:12.108Z,101563.06
2023-02-02T23:00:39.987Z,101567.44
2023-02-02T23:03:07.886Z,101569.28
2023-02-02T23:05:35.836Z,101563.94
2023-02-02T23:08:05.522Z,101560.50
2023-02-02T23:10:35.854Z,101565.69
2023-02-02T23:13:05.012Z,101577.25
2023-02-02T23:15:33.420Z,101565.53
2023-02-02T23:18:01.694Z,101566.56
2023-02-02T23:20:29.743Z,101560.25
2023-02-02T23:22:57.712Z,101552.56
2023-02-02T23:25:27.009Z,101565.81
2023-02-02T23:27:55.096Z,101563.31
2023-02-02T23:30:24.658Z,101565.03
2023-02-02T23:32:53.036Z,101569.25
2023-02-02T23:35:20.941Z,101573.06
2023-02-02T23:37:49.016Z,101571.34
2023-02-02T23:40:17.224Z,101568.47
2023-02-02T23:42:46.569Z,101568.41
2023-02-02T23:45:16.228Z,101569.13
2023-02-02T23:47:44.879Z,101556.06
2023-02-02T23:50:13.970Z,101551.84
2023-02-02T23:52:42.189Z,101551.03
2023-02-02T23:55:11.704Z,101546.81
2023-02-02T23:57:39.773Z,101551.28
